Time;durP1;ratioP1;P1;durP2;ratioP2;P2;SDS_P1;SDS_P2;PMS_P1;PMS_P2;Temp;Humidity;BMP_temperature;BMP_pressure;BME280_temperature;BME280_humidity;BME280_pressure;Samples;Min_cycle;Max_cycle;Signal;HPM_P1;HPM_P2
2022/09/10 02:19:08;;;;;;;4.97;1.00;;;;;;;21.29;71.41;94226.53;4940735;29;20072;-87
2022/09/10 02:21:34;;;;;;;6.05;1.20;;;;;;;21.24;72.44;94221.44;4916496;29;20364;-88
2022/09/10 02:24:05;;;;;;;4.85;1.08;;;;;;;21.19;73.96;94227.00;4943030;29;20038;-89
2022/09/10 02:26:32;;;;;;;6.20;1.27;;;;;;;20.99;79.72;94234.06;4943382;29;20126;-89
2022/09/10 02:29:00;;;;;;;4.60;0.80;;;;;;;20.80;81.05;94240.72;4927104;29;20043;-88
2022/09/10 02:31:25;;;;;;;6.13;1.23;;;;;;;20.73;79.71;94238.63;4927435;29;20672;-90
2022/09/10 02:33:53;;;;;;;7.28;1.25;;;;;;;20.38;86.97;94238.31;4942403;29;20039;-88
2022/09/10 02:36:19;;;;;;;5.22;1.08;;;;;;;20.30;90.18;94237.31;4927238;29;20027;-87
2022/09/10 02:38:45;;;;;;;5.22;0.90;;;;;;;20.28;86.43;94234.97;4927201;29;20089;-88
2022/09/10 02:41:11;;;;;;;5.40;0.85;;;;;;;20.31;85.46;94238.88;4927110;29;20055;-88
2022/09/10 02:43:37;;;;;;;7.30;1.95;;;;;;;20.10;89.99;94238.97;4943676;29;20055;-88
2022/09/10 02:46:04;;;;;;;5.03;1.08;;;;;;;20.26;87.24;94236.44;4942541;29;20062;-88
2022/09/10 02:48:29;;;;;;;7.63;1.30;;;;;;;20.17;89.85;94237.31;4942750;29;20023;-88
2022/09/10 02:50:56;;;;;;;4.30;1.08;;;;;;;20.09;94.49;94235.53;4942597;29;20102;-88
2022/09/10 02:53:22;;;;;;;9.60;1.27;;;;;;;20.08;96.95;94238.53;4942926;29;20042;-88
2022/09/10 02:55:47;;;;;;;8.80;1.08;;;;;;;19.82;96.09;94243.00;4942380;29;20035;-89
2022/09/10 02:58:14;;;;;;;5.68;1.05;;;;;;;19.69;99.40;94234.19;4958460;29;20023;-89
2022/09/10 03:00:41;;;;;;;5.75;1.17;;;;;;;19.52;100.00;94240.47;4926768;29;20027;-88
2022/09/10 03:03:07;;;;;;;9.50;1.08;;;;;;;19.30;100.00;94233.66;4926632;29;20027;-88
2022/09/10 03:05:37;;;;;;;8.30;1.17;;;;;;;19.47;100.00;94244.13;4942093;29;20019;-88
2022/09/10 03:08:03;;;;;;;7.20;1.00;;;;;;;19.55;100.00;94244.34;4943050;29;20133;-88
2022/09/10 03:10:30;;;;;;;10.13;1.95;;;;;;;19.58;100.00;94249.78;4942719;29;20135;-88
2022/09/10 03:12:56;;;;;;;9.50;1.40;;;;;;;19.59;100.00;94253.25;4942505;29;20087;-88
2022/09/10 03:15:21;;;;;;;13.63;1.58;;;;;;;19.68;99.19;94259.22;4958011;29;20027;-88
2022/09/10 03:17:47;;;;;;;3.67;0.90;;;;;;;19.74;100.00;94262.47;4942687;29;20027;-89
2022/09/10 03:20:12;;;;;;;4.30;0.93;;;;;;;19.67;99.13;94259.56;4942278;29;20030;-89
2022/09/10 03:22:38;;;;;;;5.07;1.13;;;;;;;19.68;100.00;94263.78;4941845;29;20031;-89
2022/09/10 03:25:05;;;;;;;5.72;1.05;;;;;;;19.66;100.00;94264.09;4942112;29;20047;-89
2022/09/10 03:27:30;;;;;;;4.88;1.30;;;;;;;19.61;100.00;94261.66;4942271;29;20049;-88
2022/09/10 03:29:56;;;;;;;5.07;1.40;;;;;;;19.56;100.00;94261.84;4958049;29;20033;-89
2022/09/10 03:32:21;;;;;;;3.95;1.00;;;;;;;19.61;100.00;94261.66;4958270;29;20027;-89
2022/09/10 03:34:48;;;;;;;9.93;1.40;;;;;;;19.45;100.00;94262.28;4926524;29;20027;-88
2022/09/10 03:37:14;;;;;;;7.75;1.40;;;;;;;19.41;100.00;94263.25;4942323;29;20030;-89
2022/09/10 03:39:40;;;;;;;4.45;1.40;;;;;;;19.27;100.00;94261.63;4942086;29;20436;-88
2022/09/10 03:42:06;;;;;;;5.82;1.10;;;;;;;19.27;100.00;94261.63;4942132;29;20030;-89
2022/09/10 03:44:32;;;;;;;9.48;1.30;;;;;;;19.12;100.00;94252.38;4926223;29;20054;-89
2022/09/10 03:46:59;;;;;;;3.50;1.10;;;;;;;19.18;100.00;94256.38;4926020;29;20130;-88
2022/09/10 03:49:24;;;;;;;6.00;1.20;;;;;;;18.74;100.00;94256.66;4958913;29;20027;-87
2022/09/10 03:51:50;;;;;;;7.50;1.42;;;;;;;18.90;100.00;94256.09;4958026;29;20030;-89
2022/09/10 03:54:15;;;;;;;4.43;1.10;;;;;;;18.93;100.00;94261.53;4941777;29;20031;-88
2022/09/10 03:56:40;;;;;;;12.85;2.75;;;;;;;18.40;100.00;94271.66;4942036;29;20027;-89
2022/09/10 03:59:06;;;;;;;11.70;3.33;;;;;;;18.01;100.00;94263.69;4957402;29;20027;-90
2022/09/10 04:01:50;;;;;;;10.13;3.10;;;;;;;17.93;100.00;94273.22;4941809;29;20027;-89
2022/09/10 04:04:15;;;;;;;;;;;;;;;18.27;100.00;94277.97;4926443;29;20033;-88
2022/09/10 04:06:41;;;;;;;7.83;1.80;;;;;;;18.04;100.00;94272.88;4925953;29;19993;-89
2022/09/10 04:09:07;;;;;;;10.93;1.85;;;;;;;17.36;100.00;94271.56;4958980;29;20271;-89
2022/09/10 04:11:32;;;;;;;12.00;1.92;;;;;;;17.94;100.00;94279.28;4941778;29;20039;-89
2022/09/10 04:13:58;;;;;;;15.80;5.68;;;;;;;17.81;100.00;94286.31;4941413;29;20115;-89
2022/09/10 04:16:23;;;;;;;19.27;7.95;;;;;;;17.27;100.00;94282.16;4957545;29;20060;-89
2022/09/10 04:18:49;;;;;;;13.77;5.25;;;;;;;16.81;100.00;94282.41;4957495;29;20440;-89
2022/09/10 04:21:15;;;;;;;15.65;5.75;;;;;;;17.32;100.00;94287.28;4941456;29;20344;-90
2022/09/10 04:23:41;;;;;;;12.00;6.15;;;;;;;17.42;100.00;94291.50;4925468;29;20032;-89
2022/09/10 04:26:11;;;;;;;12.18;4.85;;;;;;;17.64;100.00;94292.44;4941670;29;20034;-89
2022/09/10 04:28:37;;;;;;;12.20;3.72;;;;;;;17.85;100.00;94292.56;4941624;29;20348;-88
2022/09/10 04:31:02;;;;;;;6.28;3.25;;;;;;;17.72;100.00;94294.28;4957668;29;20039;-84
2022/09/10 04:33:27;;;;;;;10.05;2.58;;;;;;;17.39;100.00;94284.19;4942902;29;20122;-85
2022/09/10 04:35:54;;;;;;;11.50;2.40;;;;;;;17.07;100.00;94281.69;4960842;29;20031;-85
2022/09/10 04:38:19;;;;;;;12.65;2.90;;;;;;;17.53;100.00;94282.16;4961802;29;20460;-85
2022/09/10 04:40:46;;;;;;;10.00;2.80;;;;;;;17.41;100.00;94283.88;4961056;29;20039;-85
2022/09/10 04:43:11;;;;;;;11.80;2.53;;;;;;;16.89;100.00;94285.38;4961858;29;20027;-85
2022/09/10 04:45:37;;;;;;;12.48;3.70;;;;;;;17.15;100.00;94284.66;4960875;29;20054;-85
2022/09/10 04:48:02;;;;;;;7.68;3.63;;;;;;;17.22;100.00;94271.75;4961743;29;20023;-85
2022/09/10 04:50:28;;;;;;;22.20;7.25;;;;;;;17.35;100.00;94275.31;4960914;29;20030;-85
2022/09/10 04:52:53;;;;;;;13.43;5.93;;;;;;;17.57;100.00;94279.66;4962067;29;20118;-85
2022/09/10 04:55:19;;;;;;;13.20;5.07;;;;;;;17.54;100.00;94280.28;4960427;29;20034;-86
2022/09/10 04:57:44;;;;;;;10.18;4.10;;;;;;;17.33;100.00;94286.19;4960515;29;20031;-87
2022/09/10 05:00:11;;;;;;;7.68;3.60;;;;;;;17.61;100.00;94285.13;4957902;29;20117;-85
2022/09/10 05:02:36;;;;;;;11.05;4.32;;;;;;;17.58;100.00;94283.09;4960450;29;20027;-85
2022/09/10 05:05:02;;;;;;;12.63;4.80;;;;;;;17.63;100.00;94282.94;4944525;29;20356;-85
2022/09/10 05:07:27;;;;;;;15.18;4.57;;;;;;;17.26;100.00;94288.56;4944457;29;20027;-85
2022/09/10 05:09:54;;;;;;;14.05;4.70;;;;;;;17.33;100.00;94285.44;4960278;29;20035;-85
2022/09/10 05:12:19;;;;;;;12.98;4.82;;;;;;;17.44;100.00;94293.84;4944401;29;20023;-86
2022/09/10 05:14:44;;;;;;;10.02;4.70;;;;;;;17.25;100.00;94292.28;4960046;29;20111;-85
2022/09/10 05:17:10;;;;;;;10.07;3.85;;;;;;;17.67;100.00;94295.22;4960198;29;20027;-85
2022/09/10 05:19:35;;;;;;;11.02;3.85;;;;;;;17.73;100.00;94293.19;4960009;29;20445;-85
2022/09/10 05:22:01;;;;;;;17.85;4.25;;;;;;;17.75;100.00;94298.16;4959990;29;20434;-85
2022/09/10 05:24:26;;;;;;;11.35;4.78;;;;;;;17.95;100.00;94300.19;4959850;29;20058;-85
2022/09/10 05:26:52;;;;;;;19.25;4.45;;;;;;;17.53;100.00;94297.28;4960182;29;20026;-86
2022/09/10 05:29:18;;;;;;;10.15;4.45;;;;;;;17.59;100.00;94297.91;4943755;29;20027;-84
2022/09/10 05:31:43;;;;;;;16.00;5.25;;;;;;;17.50;100.00;94295.22;4928339;29;20025;-85
2022/09/10 05:34:08;;;;;;;13.88;4.22;;;;;;;17.98;100.00;94297.97;4943630;29;20030;-85
2022/09/10 05:36:34;;;;;;;10.60;5.22;;;;;;;18.23;100.00;94301.66;4953044;28;20046;-85
2022/09/10 05:39:02;;;;;;;14.98;6.75;;;;;;;18.24;100.00;94297.94;4931133;29;20042;-85
2022/09/10 05:41:27;;;;;;;10.77;5.57;;;;;;;18.11;100.00;94297.03;4943965;29;20095;-85
2022/09/10 05:43:53;;;;;;;14.45;5.63;;;;;;;18.40;100.00;94292.09;4943343;28;20429;-85
2022/09/10 05:46:18;;;;;;;16.08;5.82;;;;;;;18.69;100.00;94296.66;4942879;29;20037;-85
2022/09/10 05:48:44;;;;;;;16.60;5.85;;;;;;;18.49;100.00;94301.56;4927234;29;20322;-85
2022/09/10 05:51:09;;;;;;;13.38;5.80;;;;;;;18.91;100.00;94294.78;4960918;29;20035;-85
2022/09/10 05:53:35;;;;;;;7.38;4.82;;;;;;;19.09;100.00;94292.09;4943247;29;20035;-85
2022/09/10 05:56:00;;;;;;;10.65;5.13;;;;;;;19.05;100.00;94299.91;4943498;29;20046;-85
2022/09/10 05:58:29;;;;;;;12.75;4.55;;;;;;;19.22;100.00;94293.69;4960574;29;20038;-85
2022/09/10 06:00:56;;;;;;;8.75;4.53;;;;;;;19.25;100.00;94285.09;4960602;29;20033;-85
2022/09/10 06:03:21;;;;;;;17.30;4.88;;;;;;;19.42;100.00;94292.13;4960542;29;20030;-86
2022/09/10 06:05:50;;;;;;;11.18;4.03;;;;;;;19.58;100.00;94289.66;4943290;29;20138;-85
2022/09/10 06:08:22;;;;;;;10.00;3.70;;;;;;;19.73;100.00;94298.91;4943416;29;20121;-85
2022/09/10 06:11:05;;;;;;;11.93;4.10;;;;;;;19.89;100.00;94296.41;4943585;29;20054;-85
2022/09/10 06:13:31;;;;;;;9.23;3.45;;;;;;;20.06;100.00;94303.47;4943366;29;20035;-86
2022/09/10 06:15:57;;;;;;;15.90;4.22;;;;;;;19.85;100.00;94306.13;4927785;29;20039;-89
2022/09/10 06:18:22;;;;;;;11.15;3.92;;;;;;;20.13;100.00;94304.78;4940217;29;20042;-86
2022/09/10 06:20:48;;;;;;;7.57;3.83;;;;;;;20.19;100.00;94300.81;4941166;29;20044;-86
2022/09/10 06:23:15;;;;;;;8.63;4.35;;;;;;;20.29;100.00;94302.28;4924189;29;20031;-86
2022/09/10 06:25:41;;;;;;;11.93;4.78;;;;;;;20.37;100.00;94298.75;4955582;29;20425;-86
2022/09/10 06:28:08;;;;;;;15.32;4.78;;;;;;;20.46;100.00;94301.31;4940815;29;20031;-86
2022/09/10 06:30:34;;;;;;;12.45;5.13;;;;;;;20.17;100.00;94300.38;4955545;29;20031;-85
2022/09/10 06:32:59;;;;;;;13.63;6.35;;;;;;;20.48;100.00;94302.50;4973341;28;20329;-86
2022/09/10 06:35:26;;;;;;;13.05;7.35;;;;;;;20.52;100.00;94288.56;4946001;28;20038;-85
2022/09/10 06:37:53;;;;;;;16.15;7.65;;;;;;;20.42;100.00;94292.41;4962057;28;20030;-84
2022/09/10 06:40:18;;;;;;;16.73;6.75;;;;;;;20.75;100.00;94288.88;4962083;28;20038;-84
2022/09/10 06:42:45;;;;;;;11.18;6.18;;;;;;;20.93;100.00;94289.44;4946110;28;20043;-84
2022/09/10 06:45:10;;;;;;;16.02;5.95;;;;;;;20.90;100.00;94288.22;4946249;28;20399;-84
2022/09/10 06:47:36;;;;;;;13.63;5.50;;;;;;;21.09;100.00;94288.72;4961796;28;20030;-84
2022/09/10 06:50:03;;;;;;;10.13;4.63;;;;;;;21.29;100.00;94287.81;4961849;28;20428;-85
2022/09/10 06:52:28;;;;;;;9.52;4.90;;;;;;;21.39;100.00;94291.13;4945746;28;20452;-84
2022/09/10 06:54:54;;;;;;;7.55;5.25;;;;;;;21.49;100.00;94290.63;4978782;28;20074;-84
2022/09/10 06:57:19;;;;;;;18.08;7.70;;;;;;;20.89;100.00;94286.69;4947751;28;20117;-85
2022/09/10 06:59:44;;;;;;;13.73;6.90;;;;;;;21.09;100.00;94289.53;4942513;29;20189;-85
2022/09/10 07:02:14;;;;;;;21.67;6.38;;;;;;;21.22;100.00;94290.25;4942243;29;20036;-85
2022/09/10 07:04:39;;;;;;;14.90;7.03;;;;;;;21.48;100.00;94297.06;4942126;29;20093;-85
2022/09/10 07:07:04;;;;;;;15.27;8.80;;;;;;;20.84;100.00;94297.53;4942156;29;20420;-85
2022/09/10 07:09:30;;;;;;;18.35;8.50;;;;;;;20.90;100.00;94298.09;4926490;29;20033;-85
2022/09/10 07:11:56;;;;;;;15.80;7.10;;;;;;;21.08;100.00;94295.97;4942205;29;20045;-87
2022/09/10 07:14:21;;;;;;;12.27;6.55;;;;;;;21.37;100.00;94293.31;4942056;29;20043;-86
2022/09/10 07:16:49;;;;;;;15.18;7.20;;;;;;;21.30;100.00;94297.34;4942041;29;20031;-85
2022/09/10 07:19:16;;;;;;;9.98;6.50;;;;;;;21.63;100.00;94297.47;4942268;29;20097;-85
2022/09/10 07:21:41;;;;;;;13.13;5.60;;;;;;;21.92;100.00;94296.38;4959008;29;20429;-85
2022/09/10 07:24:09;;;;;;;17.20;6.72;;;;;;;22.09;100.00;94305.94;4941871;29;20042;-85
2022/09/10 07:26:35;;;;;;;12.27;5.93;;;;;;;21.88;100.00;94300.84;4941814;29;20404;-85
2022/09/10 07:29:00;;;;;;;12.70;5.20;;;;;;;22.19;100.00;94302.00;4941843;29;20034;-85
2022/09/10 07:31:28;;;;;;;12.80;5.00;;;;;;;22.06;100.00;94301.28;4958963;29;20406;-85
2022/09/10 07:33:56;;;;;;;18.63;5.97;;;;;;;22.52;100.00;94313.47;4941992;29;20098;-85
2022/09/10 07:36:22;;;;;;;14.38;5.93;;;;;;;22.51;100.00;94310.03;4941907;29;20086;-85
2022/09/10 07:38:50;;;;;;;19.23;5.75;;;;;;;22.54;100.00;94311.25;4941618;29;20579;-85
2022/09/10 07:41:16;;;;;;;16.02;4.90;;;;;;;22.46;100.00;94318.28;4941809;29;20035;-85
2022/09/10 07:43:42;;;;;;;7.55;3.53;;;;;;;22.89;100.00;94315.88;4941654;29;20077;-84
2022/09/10 07:46:15;;;;;;;8.75;3.50;;;;;;;22.81;100.00;94317.59;4925873;29;20038;-84
2022/09/10 07:48:41;;;;;;;8.30;2.63;;;;;;;22.66;100.00;94316.47;4941590;29;20042;-84
2022/09/10 07:51:07;;;;;;;9.65;1.83;;;;;;;22.78;100.00;94315.63;4941544;29;20027;-85
2022/09/10 07:53:34;;;;;;;10.82;1.80;;;;;;;22.78;100.00;94328.19;4941435;29;20038;-84
2022/09/10 07:56:01;;;;;;;7.60;1.80;;;;;;;22.99;100.00;94328.69;4941105;29;20388;-86
2022/09/10 07:58:28;;;;;;;6.45;1.98;;;;;;;23.13;100.00;94330.88;4940525;29;20035;-86
2022/09/10 08:00:54;;;;;;;11.13;2.20;;;;;;;23.06;100.00;94327.28;4941344;29;20059;-86
2022/09/10 08:03:20;;;;;;;5.97;1.88;;;;;;;23.37;100.00;94333.69;4925550;29;20066;-86
2022/09/10 08:05:47;;;;;;;13.45;2.38;;;;;;;23.25;100.00;94330.03;4958377;29;20019;-87
2022/09/10 08:08:12;;;;;;;6.05;1.88;;;;;;;23.42;100.00;94328.84;4925399;29;20031;-85
2022/09/10 08:10:39;;;;;;;9.27;3.05;;;;;;;23.44;100.00;94334.63;4925557;29;20031;-86
2022/09/10 08:13:04;;;;;;;8.65;2.78;;;;;;;23.56;100.00;94341.75;4941554;29;20464;-87
2022/09/10 08:15:30;;;;;;;14.57;3.20;;;;;;;23.46;100.00;94341.53;4925953;29;20028;-86
2022/09/10 08:17:55;;;;;;;4.50;1.95;;;;;;;23.65;100.00;94336.19;4941665;29;20077;-86
2022/09/10 08:20:25;;;;;;;10.48;2.10;;;;;;;23.72;100.00;94341.66;4925088;29;20066;-86
2022/09/10 08:22:51;;;;;;;7.88;1.65;;;;;;;23.70;100.00;94346.59;4958211;29;20083;-86
2022/09/10 08:25:18;;;;;;;10.10;2.15;;;;;;;23.79;100.00;94343.72;4940774;29;20047;-86
2022/09/10 08:27:44;;;;;;;4.78;1.70;;;;;;;23.76;95.52;94335.63;4941127;29;20023;-86
2022/09/10 08:30:10;;;;;;;9.50;1.98;;;;;;;23.84;92.50;94342.66;4940971;29;20425;-86
2022/09/10 08:32:36;;;;;;;10.65;1.85;;;;;;;23.72;100.00;94333.66;4958047;29;20038;-86
2022/09/10 08:35:03;;;;;;;10.93;2.20;;;;;;;23.93;100.00;94339.75;4957698;29;20023;-85
2022/09/10 08:37:29;;;;;;;6.95;2.33;;;;;;;24.14;100.00;94337.53;4958499;29;20023;-86
2022/09/10 08:39:55;;;;;;;13.57;1.88;;;;;;;24.29;96.71;94338.53;4944286;28;20046;-87
2022/09/10 08:42:41;;;;;;;13.63;1.75;;;;;;;24.14;91.48;94350.91;4960045;28;20114;-86
2022/09/10 08:45:15;;;;;;;10.55;1.55;;;;;;;24.19;82.90;94341.03;4960184;28;20027;-86
2022/09/10 08:47:57;;;;;;;6.13;1.75;;;;;;;24.53;89.98;94346.56;4944239;28;20452;-86
2022/09/10 08:50:43;;;;;;;7.50;1.70;;;;;;;24.66;98.14;94353.28;4944550;28;20454;-86
2022/09/10 08:53:40;;;;;;;8.18;1.45;;;;;;;24.83;91.27;94356.66;4977424;28;20126;-86
2022/09/10 08:56:12;;;;;;;5.82;1.23;;;;;;;24.96;100.00;94355.34;4977380;28;20034;-87
2022/09/10 08:58:54;;;;;;;10.23;2.00;;;;;;;25.06;94.32;94362.00;4960481;28;20026;-86
2022/09/10 09:01:27;;;;;;;6.45;1.50;;;;;;;25.05;89.90;94367.69;4977254;28;20395;-87
2022/09/10 09:03:55;;;;;;;6.50;1.65;;;;;;;24.98;88.85;94363.78;4963426;28;20027;-87
2022/09/10 09:06:31;;;;;;;5.82;1.60;;;;;;;25.09;80.32;94366.63;4941273;29;20020;-86
2022/09/10 09:08:59;;;;;;;7.22;1.95;;;;;;;24.83;76.37;94362.03;4940923;29;20031;-86
2022/09/10 09:11:55;;;;;;;10.35;1.60;;;;;;;25.13;86.63;94367.44;4941029;29;20077;-86
2022/09/10 09:14:34;;;;;;;8.35;1.50;;;;;;;25.11;80.76;94369.72;4900109;29;20355;-87
2022/09/10 09:17:04;;;;;;;5.47;1.50;;;;;;;25.17;78.99;94369.41;4940722;29;20035;-87
2022/09/10 09:19:40;;;;;;;4.50;1.50;;;;;;;25.16;81.73;94375.88;4957975;28;20028;-86
2022/09/10 09:22:14;;;;;;;7.72;1.70;;;;;;;25.16;82.05;94378.56;4944047;29;20133;-87
2022/09/10 09:24:58;;;;;;;9.73;1.60;;;;;;;25.24;79.99;94372.94;4961410;29;20027;-86
2022/09/10 09:27:26;;;;;;;7.38;1.35;;;;;;;25.03;73.08;94372.66;4955833;28;20033;-87
2022/09/10 09:30:04;;;;;;;10.90;1.75;;;;;;;25.47;71.14;94374.03;4944782;29;20058;-87
2022/09/10 09:32:33;;;;;;;9.68;2.15;;;;;;;25.53;77.25;94373.38;4944135;29;20109;-86
2022/09/10 09:35:36;;;;;;;7.15;1.48;;;;;;;25.76;78.57;94364.47;4943519;29;20043;-87
2022/09/10 09:38:07;;;;;;;13.02;1.70;;;;;;;25.77;76.96;94359.88;4849531;29;20056;-87
2022/09/10 09:40:48;;;;;;;9.40;1.70;;;;;;;26.03;77.33;94368.97;4928865;29;20074;-87
2022/09/10 09:43:23;;;;;;;8.68;1.80;;;;;;;26.01;73.51;94360.50;4943842;29;20035;-88
2022/09/10 09:45:51;;;;;;;10.30;1.83;;;;;;;25.74;73.50;94361.38;4943724;29;20129;-88
2022/09/10 09:48:19;;;;;;;6.78;1.63;;;;;;;26.04;71.17;94359.78;4944265;29;20324;-89
2022/09/10 09:50:47;;;;;;;4.65;1.02;;;;;;;26.42;64.83;94349.84;4943722;29;20452;-88
2022/09/10 09:53:17;;;;;;;5.13;1.50;;;;;;;26.27;70.62;94359.69;4928360;29;20031;-88
2022/09/10 09:55:49;;;;;;;13.60;1.88;;;;;;;26.50;77.01;94346.09;4943622;29;20027;-89
2022/09/10 09:58:20;;;;;;;6.82;1.50;;;;;;;26.54;71.55;94348.81;4928278;29;20131;-89
2022/09/10 10:01:04;;;;;;;10.00;2.00;;;;;;;26.75;75.35;94356.25;4960837;29;20428;-91
2022/09/10 10:03:49;;;;;;;6.25;1.30;;;;;;;26.04;73.14;94360.56;4960430;29;20058;-89
2022/09/10 10:06:15;;;;;;;7.07;1.60;;;;;;;26.28;75.13;94360.44;4960436;29;20054;-89
2022/09/10 10:09:17;;;;;;;12.32;1.80;;;;;;;26.54;77.51;94354.19;4928147;29;20031;-88
2022/09/10 10:11:54;;;;;;;10.32;1.63;;;;;;;27.49;73.88;94356.38;4943967;29;20046;-90
2022/09/10 10:14:19;;;;;;;4.45;1.17;;;;;;;27.15;71.95;94353.09;4943375;29;20082;-89
2022/09/10 10:16:47;;;;;;;8.20;1.77;;;;;;;26.52;70.69;94346.47;4943554;29;20031;-89
2022/09/10 10:19:32;;;;;;;8.15;1.80;;;;;;;27.19;64.80;94343.91;4943348;29;20054;-88
2022/09/10 10:22:13;;;;;;;7.40;1.33;;;;;;;27.16;72.91;94344.69;4943310;29;20035;-89
2022/09/10 10:24:41;;;;;;;11.60;1.77;;;;;;;26.34;80.16;94340.94;4960291;29;20059;-90
2022/09/10 10:27:16;;;;;;;8.60;1.90;;;;;;;25.36;78.68;94339.81;4943071;29;20034;-89
2022/09/10 10:29:53;;;;;;;6.50;1.75;;;;;;;25.34;77.63;94339.41;4943260;29;20023;-90
2022/09/10 10:32:19;;;;;;;5.80;1.73;;;;;;;24.94;83.11;94343.44;4926673;29;20042;-88
2022/09/10 10:35:22;;;;;;;6.93;1.60;;;;;;;25.21;82.53;94346.88;4942921;29;20429;-88
2022/09/10 10:38:06;;;;;;;7.63;1.85;;;;;;;24.89;89.27;94343.72;4912374;29;20039;-89
2022/09/10 10:40:42;;;;;;;13.63;2.10;;;;;;;24.61;88.86;94350.94;4958516;28;20031;-86
2022/09/10 10:43:46;;;;;;;11.07;2.35;;;;;;;25.11;86.61;94344.84;4941159;29;20405;-87
2022/09/10 10:46:16;;;;;;;8.80;2.08;;;;;;;25.60;89.72;94347.78;4940752;29;20036;-88
2022/09/10 10:48:42;;;;;;;7.90;1.98;;;;;;;25.70;87.96;94344.47;4942819;29;20050;-88
2022/09/10 10:51:19;;;;;;;9.93;2.72;;;;;;;25.36;83.36;94344.38;4942707;29;20027;-87
2022/09/10 10:54:10;;;;;;;9.82;1.63;;;;;;;25.96;78.64;94340.94;4959516;29;20038;-88
2022/09/10 10:56:49;;;;;;;9.63;2.20;;;;;;;25.80;78.82;94343.81;4959346;29;20098;-87
2022/09/10 10:59:43;;;;;;;9.85;2.22;;;;;;;25.69;82.70;94340.25;4950587;28;20377;-88
2022/09/10 11:02:17;;;;;;;9.95;2.20;;;;;;;25.40;88.33;94345.22;4918234;29;20063;-88
2022/09/10 11:04:50;;;;;;;7.90;1.88;;;;;;;25.35;84.44;94335.59;4923669;29;20020;-88
2022/09/10 11:07:42;;;;;;;5.43;1.65;;;;;;;25.17;80.10;94346.06;4923520;29;20023;-88
2022/09/10 11:10:12;;;;;;;8.57;1.45;;;;;;;25.03;80.97;94343.94;4920646;29;20412;-88
2022/09/10 11:12:41;;;;;;;5.50;2.00;;;;;;;24.62;82.48;94341.00;4923374;29;20035;-88
2022/09/10 11:15:20;;;;;;;9.60;1.73;;;;;;;24.27;86.80;94346.16;4947943;29;20027;-86
2022/09/10 11:17:52;;;;;;;5.35;1.58;;;;;;;24.56;81.04;94340.53;4942340;29;20070;-87
2022/09/10 11:20:41;;;;;;;4.60;1.55;;;;;;;24.64;80.95;94342.16;4942158;29;20419;-86
2022/09/10 11:23:29;;;;;;;9.52;1.73;;;;;;;25.31;75.54;94340.09;4948998;29;20043;-86
2022/09/10 11:26:05;;;;;;;9.43;1.80;;;;;;;25.93;71.80;94335.50;4942230;29;20026;-87
2022/09/10 11:28:35;;;;;;;9.50;2.03;;;;;;;25.99;72.04;94331.38;4942172;29;20027;-87
2022/09/10 11:31:31;;;;;;;13.40;2.08;;;;;;;26.58;75.67;94330.00;4941963;29;20508;-86
2022/09/10 11:34:02;;;;;;;9.45;1.98;;;;;;;27.44;71.05;94332.53;4931931;29;20039;-87
2022/09/10 11:36:42;;;;;;;9.80;2.53;;;;;;;26.87;75.63;94324.88;4942045;29;20027;-89
2022/09/10 11:39:16;;;;;;;11.40;1.77;;;;;;;27.15;73.86;94324.31;4959163;29;20052;-87
2022/09/10 11:41:41;;;;;;;7.18;1.90;;;;;;;27.10;73.88;94324.66;4942055;28;20143;-87
2022/09/10 11:44:35;;;;;;;8.13;2.60;;;;;;;27.30;66.13;94335.91;4941183;29;20028;-87
2022/09/10 11:47:20;;;;;;;5.43;1.80;;;;;;;26.16;72.18;94329.25;4958784;29;20035;-89
2022/09/10 11:49:53;;;;;;;8.05;1.80;;;;;;;25.99;69.99;94326.00;4958741;29;20027;-88
2022/09/10 11:52:20;;;;;;;7.32;1.80;;;;;;;25.83;70.13;94323.53;4940880;29;20023;-87
2022/09/10 11:54:46;;;;;;;6.75;2.28;;;;;;;26.35;72.95;94326.38;4941523;29;20452;-87
2022/09/10 11:57:46;;;;;;;5.65;1.80;;;;;;;26.80;68.46;94322.88;4942273;29;20065;-87
2022/09/10 12:00:16;;;;;;;9.45;2.20;;;;;;;26.23;76.83;94310.53;4906596;29;20082;-87
2022/09/10 12:03:02;;;;;;;6.80;2.35;;;;;;;26.40;74.22;94311.84;4958711;29;20071;-88
2022/09/10 12:05:50;;;;;;;8.38;1.90;;;;;;;25.98;75.36;94309.13;4941321;29;20027;-87
2022/09/10 12:08:16;;;;;;;11.88;2.17;;;;;;;25.95;73.67;94309.06;4941633;29;20055;-87
2022/09/10 12:11:03;;;;;;;9.70;2.05;;;;;;;25.45;80.47;94307.34;4958377;29;20027;-88
2022/09/10 12:13:32;;;;;;;6.82;2.00;;;;;;;25.91;82.05;94310.97;4958276;29;20031;-86
2022/09/10 12:16:01;;;;;;;7.63;2.40;;;;;;;26.31;83.15;94300.63;4941701;29;20038;-87
2022/09/10 12:18:35;;;;;;;11.82;2.50;;;;;;;26.28;79.51;94310.22;4941545;29;20034;-88
2022/09/10 12:21:08;;;;;;;11.63;2.30;;;;;;;25.90;83.18;94298.69;4941798;29;20039;-87
2022/09/10 12:23:35;;;;;;;13.80;2.78;;;;;;;26.55;84.61;94307.38;4941399;29;20054;-87
2022/09/10 12:26:11;;;;;;;8.60;2.13;;;;;;;27.66;77.19;94309.22;4941367;29;20444;-86
2022/09/10 12:28:42;;;;;;;7.15;1.90;;;;;;;27.64;71.34;94308.81;4958297;29;20027;-87
2022/09/10 12:31:10;;;;;;;10.93;2.20;;;;;;;27.09;73.66;94309.66;4941299;29;20134;-86
2022/09/10 12:33:35;;;;;;;8.10;2.22;;;;;;;28.37;73.08;94303.63;4925433;29;20038;-86
2022/09/10 12:36:02;;;;;;;7.65;1.83;;;;;;;28.92;68.28;94309.81;4958073;29;20031;-86
2022/09/10 12:38:48;;;;;;;9.82;1.40;;;;;;;28.74;66.93;94296.31;4941134;29;20023;-88
2022/09/10 12:41:19;;;;;;;9.63;1.52;;;;;;;28.25;63.41;94302.06;4958490;29;20023;-89
2022/09/10 12:43:45;;;;;;;9.18;1.65;;;;;;;28.49;61.95;94302.47;4940913;29;20078;-88
2022/09/10 12:46:13;;;;;;;11.32;1.50;;;;;;;28.17;59.56;94297.84;4958002;29;20050;-88
2022/09/10 12:48:57;;;;;;;9.38;1.40;;;;;;;29.09;58.40;94292.03;4941111;29;20031;-87
2022/09/10 12:51:29;;;;;;;7.90;1.50;;;;;;;29.57;56.88;94290.75;4958054;29;20433;-87
2022/09/10 12:54:05;;;;;;;11.38;1.70;;;;;;;28.92;57.54;94277.44;4958728;28;20038;-87
2022/09/10 12:56:58;;;;;;;9.45;1.92;;;;;;;28.43;62.74;94275.13;4945053;29;20031;-88
2022/09/10 13:00:00;;;;;;;7.55;1.50;;;;;;;28.64;64.91;94273.59;4961646;29;20027;-88
2022/09/10 13:02:29;;;;;;;6.97;1.80;;;;;;;29.23;62.69;94275.06;4944984;29;20087;-87
2022/09/10 13:05:00;;;;;;;11.27;1.95;;;;;;;29.47;59.48;94267.28;4962005;29;20113;-90
2022/09/10 13:07:36;;;;;;;8.10;1.45;;;;;;;29.65;59.14;94269.16;4961582;29;20027;-87
2022/09/10 13:10:19;;;;;;;11.93;1.77;;;;;;;29.16;57.00;94258.88;4929292;29;20042;-87
2022/09/10 13:12:46;;;;;;;7.90;1.55;;;;;;;29.20;54.52;94257.72;4928900;29;20140;-88
2022/09/10 13:15:21;;;;;;;10.77;1.80;;;;;;;28.24;60.39;94257.44;4944371;29;20039;-87
2022/09/10 13:17:46;;;;;;;5.35;1.35;;;;;;;27.80;62.88;94267.34;4928792;29;20054;-88
2022/09/10 13:20:18;;;;;;;6.80;1.20;;;;;;;26.91;65.36;94261.19;4944623;29;20069;-87
2022/09/10 13:23:08;;;;;;;5.53;1.23;;;;;;;28.46;58.11;94262.84;4961404;29;20338;-88
2022/09/10 13:25:39;;;;;;;9.57;1.42;;;;;;;27.23;60.89;94258.66;4944231;29;20031;-87
2022/09/10 13:28:29;;;;;;;8.75;1.50;;;;;;;28.18;65.83;94243.56;4944888;29;20038;-87
2022/09/10 13:31:10;;;;;;;8.32;1.30;;;;;;;28.58;69.07;94243.59;4944207;29;20117;-90
2022/09/10 13:33:55;;;;;;;5.60;1.35;;;;;;;28.05;65.04;94240.47;4974001;28;20420;-88
2022/09/10 13:36:42;;;;;;;10.68;1.58;;;;;;;27.69;68.84;94243.09;4940653;28;20046;-89
2022/09/10 13:39:44;;;;;;;10.02;1.90;;;;;;;25.62;79.91;94244.38;4966263;28;20344;-88
2022/09/10 13:42:15;;;;;;;12.23;2.17;;;;;;;26.06;80.47;94229.44;4943863;29;20031;-88
2022/09/10 13:44:47;;;;;;;9.38;1.92;;;;;;;25.44;88.48;94233.41;4928315;29;20442;-87
2022/09/10 13:47:16;;;;;;;6.25;1.58;;;;;;;26.07;85.86;94236.34;4961352;29;20038;-87
2022/09/10 13:50:04;;;;;;;6.05;2.10;;;;;;;25.76;88.20;94227.63;4944190;29;20031;-88
2022/09/10 13:52:37;;;;;;;8.95;1.77;;;;;;;26.16;84.02;94227.22;4944000;29;20045;-88
2022/09/10 13:55:06;;;;;;;11.15;1.88;;;;;;;27.26;76.42;94229.47;4943856;29;20027;-87
2022/09/10 13:57:37;;;;;;;8.05;1.85;;;;;;;28.61;69.07;94226.63;4943948;29;20131;-88
2022/09/10 14:00:08;;;;;;;8.40;1.80;;;;;;;29.34;68.53;94226.44;4928114;29;20035;-88
2022/09/10 14:02:46;;;;;;;7.93;1.45;;;;;;;29.47;65.03;94221.41;4943570;29;20031;-88